Time;durP1;ratioP1;P1;durP2;ratioP2;P2;SDS_P1;SDS_P2;PMS_P1;PMS_P2;Temp;Humidity;BMP_temperature;BMP_pressure;BME280_temperature;BME280_humidity;BME280_pressure;Samples;Min_cycle;Max_cycle;Signal;HPM_P1;HPM_P2
2022/11/09 00:03:44;;;;;;;4.18;3.30;;;13.90;99.90;;;;;;10079518;28;20099;-62
2022/11/09 00:08:37;;;;;;;5.55;3.50;;;13.90;99.90;;;;;;10070266;28;20079;-61
2022/11/09 00:13:27;;;;;;;5.32;3.72;;;13.90;99.90;;;;;;10078055;28;20121;-60
2022/11/09 00:18:18;;;;;;;5.18;3.42;;;13.80;99.90;;;;;;10083254;28;20107;-61
2022/11/09 00:23:09;;;;;;;6.50;3.88;;;13.90;99.90;;;;;;10088191;28;20067;-60
2022/11/09 00:27:59;;;;;;;6.28;3.60;;;13.80;99.90;;;;;;10088843;28;20256;-62
2022/11/09 00:32:50;;;;;;;6.70;3.45;;;13.80;99.90;;;;;;10072713;28;20077;-61
2022/11/09 00:37:40;;;;;;;5.22;4.25;;;13.80;99.90;;;;;;10074879;28;20069;-61
2022/11/09 00:42:31;;;;;;;7.03;4.05;;;13.90;99.90;;;;;;10073971;28;20021;-61
2022/11/09 00:47:22;;;;;;;6.32;3.97;;;13.90;99.90;;;;;;10072966;28;20120;-62
2022/11/09 00:52:12;;;;;;;6.15;3.60;;;13.80;99.90;;;;;;10072165;28;20156;-62
2022/11/09 00:57:03;;;;;;;5.40;3.42;;;13.80;99.90;;;;;;10084078;28;20025;-61
2022/11/09 01:01:53;;;;;;;6.63;4.03;;;13.90;99.90;;;;;;10080888;28;20090;-61
2022/11/09 01:06:44;;;;;;;6.28;4.18;;;14.00;99.90;;;;;;10073640;28;20026;-62
2022/11/09 01:11:35;;;;;;;7.80;4.32;;;14.00;99.90;;;;;;10076576;28;20519;-61
2022/11/09 01:16:26;;;;;;;7.75;3.92;;;14.00;99.90;;;;;;10077031;28;20080;-61
2022/11/09 01:21:16;;;;;;;6.20;4.10;;;14.00;99.90;;;;;;10074902;28;20041;-61
2022/11/09 01:26:11;;;;;;;9.38;4.15;;;14.00;99.90;;;;;;10077402;28;20484;-64
2022/11/09 01:31:04;;;;;;;6.35;3.10;;;14.00;99.90;;;;;;10081263;28;20033;-61
2022/11/09 01:36:08;;;;;;;5.45;4.22;;;13.90;99.90;;;;;;10072061;28;20054;-62
2022/11/09 01:40:58;;;;;;;5.35;3.50;;;13.80;99.90;;;;;;10074852;28;20106;-61
2022/11/09 01:45:58;;;;;;;23.55;4.28;;;13.80;99.90;;;;;;10068964;28;20029;-61
2022/11/09 01:50:57;;;;;;;5.80;4.63;;;13.90;99.90;;;;;;10072533;28;20029;-60
2022/11/09 01:55:51;;;;;;;6.50;4.47;;;14.00;99.90;;;;;;10071975;28;20021;-61
2022/11/09 02:00:46;;;;;;;4.43;3.22;;;13.90;99.90;;;;;;10075295;28;20036;-62
2022/11/09 02:05:40;;;;;;;6.97;3.67;;;13.90;99.90;;;;;;10050096;28;20021;-60
2022/11/09 02:10:53;;;;;;;5.88;3.65;;;13.90;99.90;;;;;;10074311;28;20087;-62
2022/11/09 02:15:43;;;;;;;5.10;3.70;;;13.80;99.90;;;;;;10070256;28;20059;-62
2022/11/09 02:20:49;;;;;;;4.55;3.35;;;13.80;99.90;;;;;;10077089;28;20033;-62
2022/11/09 02:25:43;;;;;;;4.88;3.33;;;13.80;99.90;;;;;;10073518;28;20453;-62
2022/11/09 02:30:35;;;;;;;6.20;2.95;;;13.70;99.90;;;;;;10083845;28;20407;-62
2022/11/09 02:35:26;;;;;;;4.70;2.72;;;13.60;99.90;;;;;;10085642;28;20463;-62
2022/11/09 02:40:23;;;;;;;4.20;2.97;;;13.70;99.90;;;;;;10063553;28;20041;-62
2022/11/09 02:45:13;;;;;;;7.68;3.38;;;13.60;99.90;;;;;;10078105;28;20474;-61
2022/11/09 02:50:05;;;;;;;6.25;3.35;;;13.60;99.90;;;;;;10078334;28;20090;-62
2022/11/09 02:54:56;;;;;;;4.85;2.55;;;13.50;99.90;;;;;;10090676;28;20112;-61
2022/11/09 02:59:47;;;;;;;3.08;2.35;;;13.50;99.90;;;;;;10096384;28;20096;-61
2022/11/09 03:04:38;;;;;;;4.10;2.67;;;13.50;99.90;;;;;;10095676;28;20447;-61
2022/11/09 03:09:28;;;;;;;5.97;2.80;;;13.50;99.90;;;;;;10072423;28;20028;-61
2022/11/09 03:14:19;;;;;;;5.55;2.42;;;13.50;99.90;;;;;;10086359;28;20048;-60
2022/11/09 03:19:09;;;;;;;4.63;2.58;;;13.40;99.90;;;;;;10084798;28;20173;-62
2022/11/09 03:24:00;;;;;;;5.10;2.75;;;13.40;99.90;;;;;;10087485;28;20029;-62
2022/11/09 03:28:51;;;;;;;3.63;2.55;;;13.40;99.90;;;;;;10095856;28;20437;-61
2022/11/09 03:33:41;;;;;;;4.95;2.60;;;13.40;99.90;;;;;;10094337;28;20123;-62
2022/11/09 03:38:32;;;;;;;4.47;2.70;;;13.40;99.90;;;;;;10078849;28;20048;-63
2022/11/09 03:43:22;;;;;;;4.30;2.40;;;13.40;99.90;;;;;;10084369;28;20067;-63
2022/11/09 03:48:13;;;;;;;5.63;2.63;;;13.40;99.90;;;;;;10068290;28;20026;-62
2022/11/09 03:53:04;;;;;;;5.93;3.17;;;13.50;99.90;;;;;;10082207;28;20071;-61
2022/11/09 03:57:54;;;;;;;5.15;2.50;;;13.50;99.90;;;;;;10085449;28;20096;-62
2022/11/09 04:02:45;;;;;;;7.28;2.20;;;13.60;99.90;;;;;;10080441;28;20021;-61
2022/11/09 04:07:37;;;;;;;3.95;2.47;;;13.60;99.90;;;;;;10067858;28;20177;-62
2022/11/09 04:12:27;;;;;;;2.72;1.63;;;13.60;99.90;;;;;;10072905;28;20135;-61
2022/11/09 04:17:18;;;;;;;4.30;1.75;;;13.60;99.90;;;;;;10074812;28;20142;-62
2022/11/09 04:22:08;;;;;;;1.50;1.20;;;13.70;99.90;;;;;;10086395;28;20244;-62
2022/11/09 04:26:59;;;;;;;2.40;1.75;;;13.80;99.90;;;;;;10073765;28;20186;-61
2022/11/09 04:31:50;;;;;;;3.15;1.85;;;13.70;99.90;;;;;;10078901;28;20126;-62
2022/11/09 04:36:41;;;;;;;2.20;1.80;;;13.70;99.90;;;;;;10074793;28;20542;-62
2022/11/09 04:41:31;;;;;;;2.78;1.70;;;13.70;99.90;;;;;;10068558;28;20122;-61
2022/11/09 04:46:22;;;;;;;1.77;1.40;;;13.70;99.90;;;;;;10067598;28;20133;-62
2022/11/09 04:51:13;;;;;;;3.70;1.58;;;13.80;99.90;;;;;;10070974;28;20045;-62
2022/11/09 04:56:05;;;;;;;3.35;1.67;;;13.70;99.90;;;;;;10066125;28;20063;-61
2022/11/09 05:01:02;;;;;;;2.30;1.60;;;13.80;99.90;;;;;;10080062;28;20072;-61
2022/11/09 05:05:53;;;;;;;2.08;1.70;;;13.70;99.90;;;;;;10070171;28;20029;-60
2022/11/09 05:10:43;;;;;;;3.97;2.00;;;13.60;99.90;;;;;;10053007;28;20143;-62
2022/11/09 05:15:35;;;;;;;2.00;1.70;;;13.70;99.90;;;;;;10072749;28;20056;-61
2022/11/09 05:20:27;;;;;;;3.78;2.03;;;13.70;99.90;;;;;;10068924;28;20128;-60
2022/11/09 05:25:17;;;;;;;2.20;1.70;;;13.70;99.90;;;;;;10068999;28;20440;-61
2022/11/09 05:30:08;;;;;;;6.25;2.45;;;13.60;99.90;;;;;;10078286;28;20037;-63
2022/11/09 05:34:59;;;;;;;2.45;1.95;;;13.20;99.90;;;;;;10071509;28;20396;-63
2022/11/09 05:39:49;;;;;;;3.10;2.00;;;13.10;99.90;;;;;;10078351;28;20074;-62
2022/11/09 05:44:40;;;;;;;2.53;2.15;;;13.10;99.90;;;;;;10065181;28;20484;-63
2022/11/09 05:49:31;;;;;;;3.65;2.10;;;13.10;99.90;;;;;;10069572;28;20033;-60
2022/11/09 05:54:21;;;;;;;4.20;2.53;;;13.20;99.90;;;;;;10073522;28;20035;-62
2022/11/09 05:59:12;;;;;;;4.43;2.70;;;13.20;99.90;;;;;;10077759;28;20029;-62
2022/11/09 06:04:03;;;;;;;4.72;2.60;;;13.20;99.90;;;;;;10060378;28;20423;-61
2022/11/09 06:08:53;;;;;;;3.10;2.13;;;13.30;99.90;;;;;;10068932;28;20048;-63
2022/11/09 06:13:44;;;;;;;4.47;2.20;;;13.30;99.90;;;;;;10071053;28;20029;-61
2022/11/09 06:18:36;;;;;;;3.70;2.22;;;13.30;99.90;;;;;;10068406;28;20128;-63
2022/11/09 06:23:28;;;;;;;2.80;1.92;;;13.40;99.90;;;;;;10078625;28;20462;-62
2022/11/09 06:28:19;;;;;;;3.33;2.13;;;13.30;99.90;;;;;;10073706;28;20037;-61
2022/11/09 06:33:10;;;;;;;5.22;2.28;;;13.40;99.90;;;;;;10066208;28;20053;-61
2022/11/09 06:38:00;;;;;;;2.13;1.70;;;13.50;99.90;;;;;;10080039;28;20090;-61
2022/11/09 06:42:51;;;;;;;3.97;2.25;;;13.50;99.90;;;;;;10083445;28;20037;-62
2022/11/09 06:47:42;;;;;;;3.90;1.52;;;13.50;99.90;;;;;;10074334;28;20024;-61
2022/11/09 06:52:32;;;;;;;3.70;1.70;;;13.40;99.90;;;;;;10066297;28;20041;-61
2022/11/09 06:57:23;;;;;;;2.28;1.48;;;13.50;99.90;;;;;;10072871;28;20017;-61
2022/11/09 07:02:19;;;;;;;2.30;1.55;;;13.50;99.90;;;;;;10077740;28;20037;-62
2022/11/09 07:07:09;;;;;;;2.42;1.60;;;13.60;99.90;;;;;;10084689;28;20029;-60
2022/11/09 07:12:00;;;;;;;3.08;1.48;;;13.50;99.90;;;;;;10077862;28;20061;-61
2022/11/09 07:16:51;;;;;;;1.83;1.67;;;13.60;99.90;;;;;;10077346;28;20013;-61
2022/11/09 07:21:41;;;;;;;5.28;1.77;;;13.60;99.90;;;;;;10076727;28;20040;-61
2022/11/09 07:26:32;;;;;;;2.65;1.30;;;13.60;99.90;;;;;;10079048;28;20079;-62
2022/11/09 07:31:23;;;;;;;2.65;1.00;;;13.60;99.90;;;;;;10081980;28;20342;-60
2022/11/09 07:36:13;;;;;;;1.20;0.88;;;13.60;99.90;;;;;;10075366;28;20103;-62
2022/11/09 07:41:04;;;;;;;1.13;0.93;;;13.60;99.90;;;;;;10077107;28;20041;-62
2022/11/09 07:45:55;;;;;;;1.55;0.80;;;13.60;99.90;;;;;;10070737;28;20013;-62
2022/11/09 07:50:46;;;;;;;1.75;1.05;;;13.70;99.90;;;;;;10078311;28;20424;-60
2022/11/09 07:55:37;;;;;;;2.35;1.25;;;13.70;99.90;;;;;;10073543;28;20028;-61
2022/11/09 08:00:29;;;;;;;1.85;1.20;;;13.70;99.90;;;;;;10077329;28;20028;-62
2022/11/09 08:05:20;;;;;;;4.22;1.30;;;13.70;99.90;;;;;;10077814;28;20021;-63
2022/11/09 08:10:11;;;;;;;2.42;1.30;;;13.80;99.90;;;;;;10077478;28;20051;-62
2022/11/09 08:15:02;;;;;;;2.53;1.40;;;13.80;99.90;;;;;;10060614;28;20017;-62
2022/11/09 08:19:53;;;;;;;2.42;1.52;;;13.90;99.90;;;;;;10061844;28;20041;-61
2022/11/09 08:24:43;;;;;;;1.15;1.00;;;13.90;99.90;;;;;;10065431;28;20384;-61
2022/11/09 08:29:34;;;;;;;2.35;1.50;;;14.00;99.90;;;;;;10062517;28;20511;-63
2022/11/09 08:34:25;;;;;;;2.42;1.60;;;14.10;99.90;;;;;;10063062;28;21051;-63
2022/11/09 08:39:16;;;;;;;2.40;1.90;;;14.20;99.90;;;;;;10060273;28;20405;-61
2022/11/09 08:44:06;;;;;;;2.38;1.40;;;14.30;99.90;;;;;;10071604;28;20048;-63
2022/11/09 08:48:57;;;;;;;3.63;1.70;;;14.40;99.90;;;;;;10082055;28;20052;-61
2022/11/09 08:53:48;;;;;;;3.33;1.90;;;14.50;99.90;;;;;;10075308;28;20326;-61
2022/11/09 08:58:39;;;;;;;3.63;2.00;;;14.60;99.90;;;;;;10078268;28;20025;-62
2022/11/09 09:03:29;;;;;;;3.45;2.28;;;14.60;99.90;;;;;;10080808;28;20104;-62
2022/11/09 09:08:21;;;;;;;2.83;2.08;;;14.70;99.90;;;;;;10083495;28;20025;-62
2022/11/09 09:13:12;;;;;;;2.35;2.10;;;14.80;99.90;;;;;;10077779;28;20028;-63
2022/11/09 09:18:03;;;;;;;4.75;2.70;;;14.80;99.90;;;;;;10084033;28;20041;-63
2022/11/09 09:22:58;;;;;;;5.47;2.92;;;14.80;99.90;;;;;;10077706;28;20025;-62
2022/11/09 09:27:49;;;;;;;3.80;1.75;;;14.70;99.90;;;;;;10081276;28;20387;-62
2022/11/09 09:32:39;;;;;;;5.78;2.53;;;14.80;99.90;;;;;;10072837;28;20045;-64
2022/11/09 09:37:30;;;;;;;2.97;2.65;;;14.80;99.90;;;;;;10085561;28;20421;-71
2022/11/09 09:42:30;;;;;;;3.20;2.53;;;14.80;99.90;;;;;;10074876;28;20022;-71
2022/11/09 09:47:38;;;;;;;4.05;2.30;;;14.80;99.90;;;;;;10068973;28;20033;-71
2022/11/09 09:52:46;;;;;;;4.75;2.75;;;15.00;99.90;;;;;;10070146;28;20029;-67
2022/11/09 09:57:38;;;;;;;3.08;2.63;;;14.90;99.90;;;;;;10072531;28;20111;-66
2022/11/09 10:02:33;;;;;;;3.88;3.13;;;15.00;99.90;;;;;;10070515;28;20017;-65
2022/11/09 10:08:01;;;;;;;5.20;2.47;;;15.00;99.90;;;;;;10070812;28;20854;-65
2022/11/09 10:13:16;;;;;;;3.75;2.00;;;15.10;99.90;;;;;;10069228;28;20112;-67
2022/11/09 10:18:18;;;;;;;2.97;2.10;;;15.10;99.90;;;;;;10078027;28;20112;-66
2022/11/09 10:23:35;;;;;;;4.88;1.98;;;15.20;99.90;;;;;;10078089;28;20079;-65
2022/11/09 10:28:28;;;;;;;2.97;2.40;;;15.20;99.90;;;;;;10066210;28;20112;-67
2022/11/09 10:33:20;;;;;;;5.55;2.30;;;15.10;99.90;;;;;;10059424;28;20044;-67
2022/11/09 10:38:27;;;;;;;3.70;1.85;;;15.10;99.90;;;;;;10079826;28;20017;-67
2022/11/09 10:43:18;;;;;;;3.40;2.33;;;15.10;99.90;;;;;;10082460;28;20057;-65
2022/11/09 10:48:11;;;;;;;2.30;1.90;;;15.00;99.90;;;;;;10083024;28;20025;-65
2022/11/09 10:53:23;;;;;;;2.45;1.73;;;15.10;99.90;;;;;;10085742;28;20526;-65
2022/11/09 10:58:34;;;;;;;3.97;1.73;;;15.20;99.90;;;;;;10082494;28;20096;-65
2022/11/09 11:03:25;;;;;;;4.10;1.60;;;15.20;99.90;;;;;;10093972;28;20047;-67
2022/11/09 11:08:46;;;;;;;3.42;1.73;;;15.20;99.90;;;;;;10083062;28;20025;-66
2022/11/09 11:13:37;;;;;;;2.45;1.70;;;15.30;99.90;;;;;;10062324;28;20048;-69
2022/11/09 11:18:31;;;;;;;2.58;2.00;;;15.30;99.90;;;;;;10074047;28;20081;-66
2022/11/09 11:23:24;;;;;;;4.57;1.92;;;15.30;99.90;;;;;;10078902;28;20517;-65
2022/11/09 11:28:45;;;;;;;3.75;2.10;;;15.40;99.90;;;;;;10079210;28;20025;-66
2022/11/09 11:33:35;;;;;;;5.75;2.42;;;15.40;99.90;;;;;;10065939;28;20904;-73
2022/11/09 11:38:50;;;;;;;3.78;2.75;;;15.40;99.90;;;;;;10076802;28;20373;-67
2022/11/09 11:43:59;;;;;;;6.22;2.45;;;15.50;99.90;;;;;;10080465;28;20056;-66
2022/11/09 11:48:55;;;;;;;5.97;2.60;;;15.40;99.90;;;;;;10068937;28;20134;-67
2022/11/09 11:54:25;;;;;;;3.83;2.40;;;15.40;99.90;;;;;;10081379;28;20113;-67
2022/11/09 11:59:41;;;;;;;4.47;2.45;;;15.40;99.90;;;;;;10058907;28;20116;-67
2022/11/09 12:04:59;;;;;;;4.00;2.53;;;15.50;99.90;;;;;;10065333;28;21628;-68
2022/11/09 12:10:10;;;;;;;3.55;2.60;;;15.60;99.90;;;;;;10064497;28;20499;-68
2022/11/09 12:15:20;;;;;;;4.60;2.22;;;15.50;99.90;;;;;;10061302;28;20096;-69
2022/11/09 12:20:22;;;;;;;3.88;2.50;;;15.60;99.90;;;;;;10081188;28;20566;-71
2022/11/09 12:25:21;;;;;;;5.28;2.05;;;15.60;99.90;;;;;;10072243;28;20117;-70
2022/11/09 12:30:23;;;;;;;2.88;2.15;;;15.50;99.90;;;;;;10064452;28;20322;-70
2022/11/09 12:35:33;;;;;;;4.07;2.50;;;15.60;99.90;;;;;;10074785;28;20044;-69
2022/11/09 12:40:35;;;;;;;4.68;2.78;;;15.60;99.90;;;;;;10081951;28;20037;-67
2022/11/09 12:45:32;;;;;;;4.97;2.95;;;15.60;99.90;;;;;;10062794;28;20028;-69
2022/11/09 12:50:25;;;;;;;3.80;2.38;;;15.60;99.90;;;;;;10070763;28;20511;-67
2022/11/09 12:55:20;;;;;;;2.67;2.10;;;15.60;99.90;;;;;;10085336;28;20025;-65
2022/11/09 13:00:33;;;;;;;3.15;2.22;;;15.50;99.90;;;;;;10075453;28;20673;-64
2022/11/09 13:05:32;;;;;;;6.45;2.42;;;15.50;99.90;;;;;;10083232;28;20056;-65
2022/11/09 13:10:31;;;;;;;3.55;1.85;;;15.50;99.90;;;;;;10074217;28;20028;-62
2022/11/09 13:15:27;;;;;;;4.15;2.25;;;15.30;99.90;;;;;;10068164;28;20083;-63
2022/11/09 13:20:36;;;;;;;4.45;2.38;;;15.20;99.90;;;;;;10079016;28;20454;-64
2022/11/09 13:25:33;;;;;;;2.28;1.63;;;15.30;99.90;;;;;;10063074;28;20080;-64
2022/11/09 13:30:23;;;;;;;3.92;2.00;;;15.20;99.90;;;;;;10070661;28;20442;-65
2022/11/09 13:35:47;;;;;;;2.63;1.55;;;15.30;99.90;;;;;;10071605;28;20096;-64
2022/11/09 13:40:48;;;;;;;3.38;1.60;;;15.20;99.90;;;;;;10009024;28;20081;-66
2022/11/09 13:45:51;;;;;;;2.30;1.58;;;15.20;99.90;;;;;;10063336;28;20033;-64
2022/11/09 13:50:54;;;;;;;2.92;2.17;;;15.10;99.90;;;;;;10066999;28;20029;-63
2022/11/09 13:55:44;;;;;;;2.58;1.55;;;15.20;99.90;;;;;;10068868;28;20076;-63
2022/11/09 14:00:35;;;;;;;2.80;1.98;;;15.10;99.90;;;;;;10066761;28;20564;-64
2022/11/09 14:05:30;;;;;;;3.45;1.65;;;15.10;99.90;;;;;;10063485;28;20060;-66
2022/11/09 14:10:25;;;;;;;3.05;1.92;;;15.00;99.90;;;;;;10077014;28;20044;-64
2022/11/09 14:15:21;;;;;;;3.20;2.07;;;15.00;99.90;;;;;;10070800;28;20057;-62
2022/11/09 14:20:11;;;;;;;3.83;2.03;;;15.10;99.90;;;;;;10066522;28;20079;-65
2022/11/09 14:25:17;;;;;;;2.00;1.58;;;15.10;99.90;;;;;;10070405;28;20029;-65
2022/11/09 14:30:21;;;;;;;;;;;15.10;99.90;;;;;;10085278;28;20510;-66
2022/11/09 14:35:21;;;;;;;1.65;1.55;;;15.10;99.90;;;;;;10077217;28;19924;-64
2022/11/09 14:40:20;;;;;;;4.13;1.70;;;15.10;99.90;;;;;;10083280;28;20075;-63
2022/11/09 14:45:15;;;;;;;2.97;2.00;;;15.00;99.90;;;;;;10072789;28;20111;-66
2022/11/09 14:50:13;;;;;;;2.47;1.70;;;15.00;99.90;;;;;;10086729;28;20419;-64
2022/11/09 14:55:04;;;;;;;4.20;1.55;;;15.00;99.90;;;;;;10098074;28;20021;-64
2022/11/09 14:59:56;;;;;;;3.53;1.52;;;15.00;99.90;;;;;;10091268;28;20079;-63
2022/11/09 15:04:59;;;;;;;2.70;1.80;;;14.90;99.90;;;;;;10098624;28;20093;-65
2022/11/09 15:09:57;;;;;;;2.65;1.80;;;14.90;99.90;;;;;;10073921;28;20032;-64
2022/11/09 15:14:51;;;;;;;2.20;1.90;;;14.90;99.90;;;;;;10085393;28;20025;-64
2022/11/09 15:19:51;;;;;;;2.92;1.63;;;14.80;99.90;;;;;;10084786;28;20021;-64
2022/11/09 15:24:47;;;;;;;2.60;1.88;;;14.80;99.90;;;;;;10089735;28;20499;-65
2022/11/09 15:29:39;;;;;;;;;;;14.70;99.90;;;;;;10084438;28;20050;-64
2022/11/09 15:34:40;;;;;;;2.78;1.63;;;14.60;99.90;;;;;;10092970;28;20369;-64
2022/11/09 15:39:31;;;;;;;3.22;1.85;;;14.60;99.90;;;;;;10084358;28;20415;-63
2022/11/09 15:44:22;;;;;;;4.40;2.38;;;14.70;99.90;;;;;;10066304;28;20042;-63
2022/11/09 15:49:22;;;;;;;3.47;1.50;;;14.70;99.90;;;;;;10068848;28;20040;-64
2022/11/09 15:54:14;;;;;;;2.45;1.65;;;14.60;99.90;;;;;;10081434;28;20499;-64
2022/11/09 15:59:05;;;;;;;2.38;1.20;;;14.60;99.90;;;;;;10068458;28;20037;-68
2022/11/09 16:03:56;;;;;;;2.67;1.02;;;14.50;99.90;;;;;;10078158;28;20036;-64
2022/11/09 16:08:49;;;;;;;9.68;1.60;;;14.50;99.90;;;;;;10068389;28;20025;-64
2022/11/09 16:13:39;;;;;;;2.53;1.67;;;14.40;99.90;;;;;;10065990;28;20037;-62
2022/11/09 16:18:31;;;;;;;1.67;1.30;;;14.40;99.90;;;;;;10071415;28;20033;-65
2022/11/09 16:23:22;;;;;;;3.22;2.08;;;14.40;99.90;;;;;;10064044;28;20032;-66
2022/11/09 16:28:12;;;;;;;3.08;2.13;;;14.50;99.90;;;;;;10073799;28;20036;-68
2022/11/09 16:33:03;;;;;;;3.50;1.75;;;14.40;99.90;;;;;;10080200;28;20110;-64
2022/11/09 16:37:54;;;;;;;3.03;2.22;;;14.40;99.90;;;;;;10081603;28;20025;-65
2022/11/09 16:42:46;;;;;;;5.20;2.33;;;14.40;99.90;;;;;;10069786;28;20029;-64
2022/11/09 16:47:49;;;;;;;3.22;2.03;;;14.40;99.90;;;;;;10054953;28;20056;-62
2022/11/09 16:52:40;;;;;;;4.25;2.53;;;14.50;99.90;;;;;;10088407;28;20097;-64
2022/11/09 16:57:31;;;;;;;2.70;2.05;;;14.40;99.90;;;;;;10091598;28;20368;-64
2022/11/09 17:02:24;;;;;;;3.53;2.28;;;14.40;99.90;;;;;;10093056;28;20037;-65
2022/11/09 17:07:14;;;;;;;2.33;1.95;;;14.40;99.90;;;;;;10089949;28;20048;-66
2022/11/09 17:12:05;;;;;;;5.10;2.38;;;14.30;99.90;;;;;;10066736;28;20339;-67
2022/11/09 17:16:56;;;;;;;4.97;2.78;;;14.30;99.90;;;;;;10067878;28;20024;-68
2022/11/09 17:21:46;;;;;;;4.72;3.08;;;14.30;99.90;;;;;;10071027;28;20409;-68
2022/11/09 17:26:37;;;;;;;2.92;2.38;;;14.30;99.90;;;;;;10075403;28;20022;-67
2022/11/09 17:31:28;;;;;;;3.50;2.30;;;14.30;99.90;;;;;;10075714;28;20041;-69
2022/11/09 17:36:19;;;;;;;4.38;2.30;;;14.30;99.90;;;;;;10063458;28;20420;-68
2022/11/09 17:41:12;;;;;;;4.45;3.10;;;14.30;99.90;;;;;;10068778;28;20458;-67
2022/11/09 17:46:04;;;;;;;5.40;2.80;;;14.30;99.90;;;;;;10066472;28;20028;-67
2022/11/09 17:50:56;;;;;;;3.65;2.13;;;14.30;99.90;;;;;;10068499;28;20040;-69
2022/11/09 17:55:48;;;;;;;3.65;2.55;;;14.30;99.90;;;;;;10082035;28;20052;-67
2022/11/09 18:00:39;;;;;;;3.92;2.45;;;14.30;99.90;;;;;;10078835;28;20046;-67
2022/11/09 18:05:30;;;;;;;5.90;3.05;;;14.30;99.90;;;;;;10078140;28;20030;-68
2022/11/09 18:10:20;;;;;;;6.80;2.78;;;14.30;99.90;;;;;;10066562;28;20036;-67
2022/11/09 18:15:11;;;;;;;5.25;3.42;;;14.30;99.90;;;;;;10068696;28;20034;-67
2022/11/09 18:20:02;;;;;;;5.20;3.20;;;14.30;99.90;;;;;;10080813;28;20028;-67
2022/11/09 18:24:53;;;;;;;4.85;3.60;;;14.30;99.90;;;;;;10075143;28;20021;-67
2022/11/09 18:29:43;;;;;;;5.15;2.60;;;14.20;99.90;;;;;;10082253;28;20038;-66
2022/11/09 18:34:34;;;;;;;6.18;3.15;;;14.20;99.90;;;;;;10069225;28;20092;-67
2022/11/09 18:39:25;;;;;;;6.15;2.70;;;14.20;99.90;;;;;;10077029;28;20037;-67
2022/11/09 18:44:16;;;;;;;5.47;2.75;;;14.20;99.90;;;;;;10056967;28;20033;-66
2022/11/09 18:49:06;;;;;;;4.95;2.40;;;14.20;99.90;;;;;;10062586;28;20045;-67
2022/11/09 18:53:57;;;;;;;5.35;3.40;;;14.20;99.90;;;;;;10081648;28;20039;-67
2022/11/09 18:58:49;;;;;;;8.63;3.03;;;14.10;99.90;;;;;;10091760;28;20017;-68
2022/11/09 19:03:40;;;;;;;6.43;2.85;;;14.10;99.90;;;;;;10092214;28;20033;-67
2022/11/09 19:13:40;;;;;;;6.30;3.50;;;14.10;99.90;;;;;;10082637;28;20082;-67
2022/11/09 19:18:31;;;;;;;4.70;3.15;;;14.10;99.90;;;;;;10065749;28;20105;-67
2022/11/09 19:23:22;;;;;;;6.15;4.68;;;14.20;99.90;;;;;;10066311;28;20255;-68
2022/11/09 19:28:12;;;;;;;6.72;3.67;;;14.10;99.90;;;;;;10070128;28;20029;-66
2022/11/09 19:33:04;;;;;;;5.43;3.20;;;14.10;99.90;;;;;;10075000;28;20060;-67
2022/11/09 19:37:54;;;;;;;5.18;3.38;;;14.00;99.90;;;;;;10074042;28;20099;-66
2022/11/09 19:42:45;;;;;;;5.93;3.70;;;14.00;99.90;;;;;;10068094;28;20056;-67
2022/11/09 19:47:36;;;;;;;4.13;3.25;;;14.00;99.90;;;;;;10064348;28;20208;-67
2022/11/09 19:52:27;;;;;;;7.80;4.30;;;14.10;99.90;;;;;;10083394;28;20276;-67
2022/11/09 19:57:17;;;;;;;8.00;4.45;;;14.10;99.90;;;;;;10084636;28;20104;-67
2022/11/09 20:02:09;;;;;;;6.55;4.30;;;14.00;99.90;;;;;;10081585;28;20037;-68
2022/11/09 20:07:00;;;;;;;7.88;4.03;;;14.00;99.90;;;;;;10079934;28;20104;-67
2022/11/09 20:17:00;;;;;;;5.85;3.78;;;14.00;99.90;;;;;;10064226;28;20040;-67
2022/11/09 20:21:50;;;;;;;5.75;3.63;;;14.00;99.90;;;;;;10074092;28;20526;-69
2022/11/09 20:26:42;;;;;;;6.40;4.07;;;14.00;99.90;;;;;;10073272;28;20088;-67
2022/11/09 20:31:33;;;;;;;7.82;3.35;;;14.00;99.90;;;;;;10081905;28;20605;-65
2022/11/09 20:36:24;;;;;;;4.50;3.47;;;14.00;99.90;;;;;;10073526;28;20245;-68
2022/11/09 20:41:14;;;;;;;6.55;3.92;;;14.00;99.90;;;;;;10081787;28;20029;-68
2022/11/09 20:46:08;;;;;;;6.90;3.75;;;14.00;99.90;;;;;;10051376;28;20034;-68
2022/11/09 20:51:06;;;;;;;8.00;4.10;;;14.00;99.90;;;;;;10082258;28;20033;-68
2022/11/09 20:55:57;;;;;;;5.65;3.65;;;14.00;99.90;;;;;;10087151;28;20175;-67
2022/11/09 21:00:57;;;;;;;4.30;2.92;;;14.00;99.90;;;;;;10085358;28;20474;-67
2022/11/09 21:05:52;;;;;;;6.30;3.72;;;14.00;99.90;;;;;;10086374;28;20116;-69
2022/11/09 21:10:43;;;;;;;5.82;3.35;;;14.00;99.90;;;;;;10074729;28;20032;-66
2022/11/09 21:15:34;;;;;;;5.80;3.25;;;13.90;99.90;;;;;;10076871;28;20427;-67
2022/11/09 21:20:24;;;;;;;5.03;3.30;;;13.90;99.90;;;;;;10088482;28;20036;-67
2022/11/09 21:30:24;;;;;;;7.55;3.58;;;13.90;99.90;;;;;;10069270;28;20060;-67
2022/11/09 21:35:15;;;;;;;5.43;3.67;;;13.90;99.90;;;;;;10080559;28;20048;-66
2022/11/09 21:40:06;;;;;;;6.65;2.95;;;13.80;99.90;;;;;;10082102;28;20033;-67
2022/11/09 21:44:57;;;;;;;4.85;3.60;;;13.90;99.90;;;;;;10073911;28;20083;-66
2022/11/09 21:49:47;;;;;;;7.82;4.07;;;13.90;99.90;;;;;;10075324;28;20069;-66
2022/11/09 21:54:39;;;;;;;4.80;3.50;;;13.90;99.90;;;;;;10080638;28;20017;-67
2022/11/09 21:59:30;;;;;;;5.68;3.90;;;13.90;99.90;;;;;;10071065;28;20120;-67
2022/11/09 22:04:20;;;;;;;6.20;3.47;;;13.80;99.90;;;;;;10056651;28;20100;-68
2022/11/09 22:09:14;;;;;;;6.05;4.00;;;13.80;99.90;;;;;;10076701;28;20122;-67
2022/11/09 22:24:23;;;;;;;5.53;3.38;;;13.90;99.90;;;;;;10088567;28;20036;-67
2022/11/09 22:29:13;;;;;;;7.63;3.95;;;13.80;99.90;;;;;;10080318;28;20223;-67
2022/11/09 22:34:04;;;;;;;5.60;3.78;;;13.90;99.90;;;;;;10089402;28;20067;-68
2022/11/09 22:38:55;;;;;;;5.72;3.83;;;13.90;99.90;;;;;;10076548;28;20024;-67
2022/11/09 22:43:45;;;;;;;6.13;3.42;;;13.80;99.90;;;;;;10082005;28;20029;-68
2022/11/09 22:48:37;;;;;;;5.82;3.67;;;13.70;99.90;;;;;;10074888;28;20482;-66
2022/11/09 22:53:28;;;;;;;6.20;4.22;;;13.70;99.90;;;;;;10089400;28;20037;-65
2022/11/09 22:58:19;;;;;;;9.23;4.93;;;13.60;99.90;;;;;;10088707;28;20388;-63
2022/11/09 23:03:10;;;;;;;9.25;4.80;;;13.50;99.90;;;;;;10087653;28;20032;-63
2022/11/09 23:08:00;;;;;;;9.02;4.40;;;13.50;99.90;;;;;;10095721;28;20030;-63
2022/11/09 23:12:51;;;;;;;5.88;4.32;;;13.50;99.90;;;;;;10075396;28;20045;-66
2022/11/09 23:22:51;;;;;;;7.03;4.47;;;13.50;99.90;;;;;;10078566;28;20051;-68
2022/11/09 23:27:41;;;;;;;7.88;4.45;;;13.50;99.90;;;;;;10087697;28;20540;-67
2022/11/09 23:32:32;;;;;;;7.60;4.40;;;13.50;99.90;;;;;;10074080;28;20049;-68
2022/11/09 23:37:22;;;;;;;7.95;4.32;;;13.50;99.90;;;;;;10089057;28;20415;-67
2022/11/09 23:42:13;;;;;;;8.85;4.22;;;13.50;99.90;;;;;;10066159;28;20087;-66
2022/11/09 23:47:04;;;;;;;8.57;4.05;;;13.50;99.90;;;;;;10070750;28;20021;-67
2022/11/09 23:51:54;;;;;;;6.95;4.20;;;13.60;99.90;;;;;;10080756;28;20041;-68
2022/11/09 23:56:45;;;;;;;6.72;4.10;;;13.50;99.90;;;;;;10083572;28;20025;-67
